createdAt,value
2018-03-01T00:00:14.410Z,0
2018-03-01T00:00:54.839Z,0
2018-03-01T00:01:35.247Z,0
2018-03-01T00:02:16.288Z,0
2018-03-01T00:02:56.477Z,0
2018-03-01T00:03:36.869Z,0
2018-03-01T00:04:17.327Z,0
2018-03-01T00:04:57.716Z,0
2018-03-01T00:05:38.030Z,0
2018-03-01T00:06:19.604Z,0
2018-03-01T00:07:00.077Z,0
2018-03-01T00:07:40.609Z,0
2018-03-01T00:08:20.943Z,0
2018-03-01T00:09:01.863Z,0
2018-03-01T00:09:42.191Z,0
2018-03-01T00:10:22.533Z,0
2018-03-01T00:11:03.051Z,0
2018-03-01T00:11:43.580Z,0
2018-03-01T00:12:24.164Z,0
2018-03-01T00:13:04.822Z,0
2018-03-01T00:13:45.248Z,0
2018-03-01T00:14:25.754Z,0
2018-03-01T00:15:06.289Z,0
2018-03-01T00:15:46.715Z,0
2018-03-01T00:16:27.049Z,0
2018-03-01T00:17:07.489Z,0
2018-03-01T00:17:48.037Z,0
2018-03-01T00:18:28.660Z,0
2018-03-01T00:19:09.022Z,0
2018-03-01T00:19:49.437Z,0
2018-03-01T00:20:29.992Z,0
2018-03-01T00:21:10.554Z,0
2018-03-01T00:21:51.485Z,0
2018-03-01T00:22:31.753Z,0
2018-03-01T00:23:13.584Z,0
2018-03-01T00:23:54.227Z,0
2018-03-01T00:26:15.384Z,0
2018-03-01T00:27:02.625Z,0
2018-03-01T00:27:45.569Z,0
2018-03-01T00:28:32.683Z,0
2018-03-01T00:29:13.035Z,0
2018-03-01T00:29:53.460Z,0
2018-03-01T00:30:33.875Z,0
2018-03-01T00:31:20.943Z,0
2018-03-01T00:32:01.321Z,0
2018-03-01T00:32:48.363Z,0
2018-03-01T00:33:35.337Z,0
2018-03-01T00:34:22.411Z,0
2018-03-01T00:35:02.856Z,0
2018-03-01T00:35:43.251Z,0
2018-03-01T00:36:30.395Z,0
2018-03-01T00:37:17.898Z,0
2018-03-01T00:37:58.310Z,0
2018-03-01T00:38:38.689Z,0
2018-03-01T00:39:19.035Z,0
2018-03-01T00:39:59.486Z,0
2018-03-01T00:40:39.872Z,0
2018-03-01T00:41:20.227Z,0
2018-03-01T00:42:00.681Z,0
2018-03-01T00:42:41.027Z,0
2018-03-01T00:43:26.865Z,0
2018-03-01T00:44:07.185Z,0
2018-03-01T00:44:47.706Z,0
2018-03-01T00:45:28.047Z,0
2018-03-01T00:46:08.366Z,0
2018-03-01T00:46:48.784Z,0
2018-03-01T00:49:10.900Z,0
2018-03-01T00:51:28.005Z,0
2018-03-01T00:52:19.135Z,0
2018-03-01T00:53:03.345Z,0
2018-03-01T00:53:43.869Z,0
2018-03-01T00:54:24.114Z,0
2018-03-01T00:55:04.482Z,0
2018-03-01T00:56:01.529Z,0
2018-03-01T00:58:42.254Z,0
2018-03-01T00:59:29.500Z,0
2018-03-01T01:00:12.614Z,0
2018-03-01T01:00:53.047Z,0
2018-03-01T01:01:33.528Z,0
2018-03-01T01:02:30.386Z,0
2018-03-01T01:03:17.352Z,0
2018-03-01T01:04:18.380Z,0
2018-03-01T01:05:01.286Z,0
2018-03-01T01:05:44.519Z,0
2018-03-01T01:07:59.143Z,0
2018-03-01T01:08:45.189Z,0
2018-03-01T01:09:28.274Z,0
2018-03-01T01:10:08.684Z,0
2018-03-01T01:12:53.291Z,0
2018-03-01T01:13:33.740Z,0
2018-03-01T01:14:23.745Z,0
2018-03-01T01:15:04.193Z,0
2018-03-01T01:15:50.493Z,0
2018-03-01T01:16:30.907Z,0
2018-03-01T01:17:26.408Z,0
2018-03-01T01:18:09.459Z,0
2018-03-01T01:18:49.815Z,0
2018-03-01T01:19:36.809Z,0
2018-03-01T01:20:17.208Z,0
2018-03-01T01:20:57.609Z,0
2018-03-01T01:21:38.044Z,0
2018-03-01T01:22:21.438Z,0
2018-03-01T01:23:19.411Z,0
2018-03-01T01:24:14.273Z,0
2018-03-01T01:25:01.296Z,0
2018-03-01T01:27:21.132Z,0
2018-03-01T01:28:03.615Z,0
2018-03-01T01:28:44.184Z,0
2018-03-01T01:29:25.445Z,0
2018-03-01T01:30:05.750Z,0
2018-03-01T01:30:46.282Z,0
2018-03-01T01:31:26.667Z,0
2018-03-01T01:32:07.736Z,0
2018-03-01T01:32:48.341Z,0
2018-03-01T01:33:29.074Z,0
2018-03-01T01:34:09.670Z,0
2018-03-01T01:34:51.686Z,0
2018-03-01T01:35:32.068Z,0
2018-03-01T01:36:13.556Z,0
2018-03-01T01:36:53.993Z,0
2018-03-01T01:37:34.371Z,0
2018-03-01T01:38:16.772Z,0
2018-03-01T01:38:57.226Z,0
2018-03-01T01:39:37.597Z,0
2018-03-01T01:40:18.178Z,0
2018-03-01T01:40:58.618Z,0
2018-03-01T01:41:38.906Z,0
2018-03-01T01:42:19.258Z,0
2018-03-01T01:42:59.654Z,0
2018-03-01T01:43:40.980Z,0
2018-03-01T01:44:21.539Z,0
2018-03-01T01:45:02.727Z,0
2018-03-01T01:45:43.238Z,0
2018-03-01T01:46:23.759Z,0
2018-03-01T01:47:04.113Z,0
2018-03-01T01:47:44.774Z,0
2018-03-01T01:48:25.238Z,0
2018-03-01T01:49:05.760Z,0
2018-03-01T01:49:46.120Z,0
2018-03-01T01:50:26.570Z,0
2018-03-01T01:51:07.051Z,0
2018-03-01T01:51:48.030Z,0
2018-03-01T01:52:28.851Z,0
2018-03-01T01:53:11.204Z,0
2018-03-01T01:53:52.600Z,0
2018-03-01T01:54:33.185Z,0
2018-03-01T01:55:13.591Z,0
2018-03-01T01:55:54.119Z,0
2018-03-01T01:56:34.504Z,0
2018-03-01T01:57:15.026Z,0
2018-03-01T01:57:55.329Z,0
2018-03-01T01:58:35.842Z,0
2018-03-01T01:59:16.186Z,0
2018-03-01T01:59:57.454Z,0
2018-03-01T02:00:38.914Z,0
2018-03-01T02:01:19.267Z,0
2018-03-01T02:01:59.630Z,0
2018-03-01T02:02:40.044Z,0
2018-03-01T02:03:20.511Z,0
2018-03-01T02:04:00.952Z,0
2018-03-01T02:04:41.254Z,0
2018-03-01T02:05:21.656Z,0
2018-03-01T02:06:02.186Z,0
2018-03-01T02:06:43.363Z,0
2018-03-01T02:07:24.552Z,0
2018-03-01T02:08:04.952Z,0
2018-03-01T02:08:46.621Z,0
2018-03-01T02:09:27.232Z,0
2018-03-01T02:10:07.801Z,0
2018-03-01T02:10:47.999Z,0
2018-03-01T02:11:29.535Z,0
2018-03-01T02:12:09.800Z,0
2018-03-01T02:12:50.194Z,0
2018-03-01T02:13:30.589Z,0
2018-03-01T02:14:11.363Z,0
2018-03-01T02:14:51.814Z,0
2018-03-01T02:15:32.247Z,0
2018-03-01T02:16:12.577Z,0
2018-03-01T02:16:53.382Z,0
2018-03-01T02:17:33.743Z,0
2018-03-01T02:18:14.337Z,0
2018-03-01T02:18:54.779Z,0
2018-03-01T02:19:35.331Z,0
2018-03-01T02:20:15.739Z,0
2018-03-01T02:20:56.084Z,0
2018-03-01T02:21:36.468Z,0
2018-03-01T02:22:16.867Z,0
2018-03-01T02:22:57.368Z,0
2018-03-01T02:23:37.732Z,0
2018-03-01T02:24:18.952Z,0
2018-03-01T02:24:59.471Z,0
2018-03-01T02:25:39.709Z,0
2018-03-01T02:26:20.055Z,0
2018-03-01T02:27:00.698Z,0
2018-03-01T02:27:40.854Z,0
2018-03-01T02:28:21.308Z,0
2018-03-01T02:29:01.826Z,0
2018-03-01T02:29:42.329Z,0
2018-03-01T02:30:22.550Z,0
2018-03-01T02:31:03.254Z,0
2018-03-01T02:31:43.690Z,0
2018-03-01T02:32:24.190Z,0
2018-03-01T02:33:04.570Z,0
2018-03-01T02:33:44.899Z,0
2018-03-01T02:34:25.529Z,0
2018-03-01T02:35:05.835Z,0
2018-03-01T02:35:46.207Z,0
2018-03-01T02:36:26.704Z,0
2018-03-01T02:37:07.071Z,0
2018-03-01T02:37:47.565Z,0
2018-03-01T02:38:28.174Z,0
2018-03-01T02:39:08.585Z,0
2018-03-01T02:39:49.133Z,0
2018-03-01T02:40:30.398Z,0
2018-03-01T02:41:10.760Z,0
2018-03-01T02:41:51.173Z,0
2018-03-01T02:42:32.394Z,0
2018-03-01T02:43:13.011Z,0
2018-03-01T02:43:53.473Z,0
2018-03-01T02:44:33.739Z,0
2018-03-01T02:45:14.942Z,0
2018-03-01T02:45:57.038Z,0
2018-03-01T02:46:37.458Z,0
2018-03-01T02:47:17.907Z,0
2018-03-01T02:47:59.325Z,0
2018-03-01T02:48:39.813Z,0
2018-03-01T02:49:20.239Z,0
2018-03-01T02:50:00.642Z,0
2018-03-01T02:50:41.047Z,0
2018-03-01T02:51:21.720Z,0
2018-03-01T02:52:02.118Z,0
2018-03-01T02:52:42.517Z,0
2018-03-01T02:53:23.248Z,0
2018-03-01T02:54:03.421Z,0
2018-03-01T02:54:44.639Z,0
2018-03-01T02:55:25.022Z,0
2018-03-01T02:56:05.761Z,0
2018-03-01T02:56:46.996Z,0
2018-03-01T02:57:27.374Z,0
2018-03-01T02:58:09.181Z,0
2018-03-01T02:58:49.592Z,0
2018-03-01T02:59:30.023Z,0
2018-03-01T03:00:10.591Z,0
2018-03-01T03:00:50.911Z,0
2018-03-01T03:01:31.260Z,0
2018-03-01T03:02:12.117Z,0
2018-03-01T03:02:53.092Z,0
2018-03-01T03:03:33.668Z,0
2018-03-01T03:04:14.390Z,0
2018-03-01T03:04:54.884Z,0
2018-03-01T03:05:35.224Z,0
2018-03-01T03:06:16.270Z,0
2018-03-01T03:06:56.655Z,0
2018-03-01T03:07:37.100Z,0
2018-03-01T03:08:17.486Z,0
2018-03-01T03:08:58.447Z,0
2018-03-01T03:09:38.799Z,0
2018-03-01T03:10:19.214Z,0
2018-03-01T03:10:59.589Z,0
2018-03-01T03:11:39.961Z,0
2018-03-01T03:12:20.406Z,0
2018-03-01T03:13:00.817Z,0
2018-03-01T03:13:41.232Z,0
2018-03-01T03:14:21.694Z,0
2018-03-01T03:15:02.031Z,0
2018-03-01T03:15:42.510Z,0
2018-03-01T03:16:23.019Z,0
2018-03-01T03:17:03.347Z,0
2018-03-01T03:17:43.762Z,0
2018-03-01T03:18:24.236Z,0
2018-03-01T03:19:04.621Z,0
2018-03-01T03:19:45.075Z,0
2018-03-01T03:20:26.411Z,0
2018-03-01T03:21:07.695Z,0
2018-03-01T03:21:48.942Z,0
2018-03-01T03:22:29.266Z,0
2018-03-01T03:23:10.742Z,0
2018-03-01T03:23:51.167Z,0
2018-03-01T03:24:31.573Z,0
2018-03-01T03:25:12.776Z,0
2018-03-01T03:25:53.164Z,0
2018-03-01T03:26:33.715Z,0
2018-03-01T03:27:14.173Z,0
2018-03-01T03:27:54.472Z,0
2018-03-01T03:28:34.931Z,0
2018-03-01T03:29:15.272Z,0
2018-03-01T03:29:55.698Z,0
2018-03-01T03:30:36.246Z,0
2018-03-01T03:31:16.660Z,0
2018-03-01T03:31:57.651Z,0
2018-03-01T03:32:38.051Z,0
2018-03-01T03:33:19.055Z,0
2018-03-01T03:34:00.033Z,0
2018-03-01T03:34:40.427Z,0
2018-03-01T03:35:21.004Z,0
2018-03-01T03:36:01.354Z,0
2018-03-01T03:36:41.923Z,0
2018-03-01T03:37:22.425Z,0
2018-03-01T03:38:02.762Z,0
2018-03-01T03:38:43.148Z,0
2018-03-01T03:39:23.746Z,0
2018-03-01T03:40:04.200Z,0
2018-03-01T03:40:44.565Z,0
2018-03-01T03:41:25.008Z,0
2018-03-01T03:42:05.446Z,0
2018-03-01T03:42:45.817Z,0
2018-03-01T03:43:26.197Z,0
2018-03-01T03:44:06.665Z,0
2018-03-01T03:44:47.051Z,0
2018-03-01T03:45:27.444Z,0
2018-03-01T03:46:07.798Z,0
2018-03-01T03:46:49.105Z,0
2018-03-01T03:47:29.541Z,0
2018-03-01T03:48:10.030Z,0
2018-03-01T03:48:50.443Z,0
2018-03-01T03:49:30.833Z,0
2018-03-01T03:50:11.487Z,0
2018-03-01T03:50:53.608Z,0
2018-03-01T03:51:34.471Z,0
2018-03-01T03:52:14.867Z,0
2018-03-01T03:52:55.271Z,0
2018-03-01T03:53:35.663Z,0
2018-03-01T03:54:16.184Z,0
2018-03-01T03:54:56.578Z,0
2018-03-01T03:55:37.024Z,0
2018-03-01T03:56:17.421Z,0
2018-03-01T03:56:57.854Z,0
2018-03-01T03:57:38.447Z,0
2018-03-01T03:58:19.042Z,0
2018-03-01T03:58:59.342Z,0
2018-03-01T03:59:39.803Z,0
2018-03-01T04:00:20.332Z,0
2018-03-01T04:01:00.673Z,0
2018-03-01T04:01:41.133Z,0
2018-03-01T04:02:21.769Z,0
2018-03-01T04:03:02.386Z,0
2018-03-01T04:03:42.702Z,0
2018-03-01T04:04:23.234Z,0
2018-03-01T04:05:03.632Z,0
2018-03-01T04:05:44.033Z,0
2018-03-01T04:06:25.188Z,0
2018-03-01T04:07:05.536Z,0
2018-03-01T04:49:54.594Z,0
2018-03-01T04:50:35.438Z,0
2018-03-01T04:51:15.822Z,0
2018-03-01T04:51:56.323Z,0
2018-03-01T04:52:36.786Z,0
2018-03-01T04:53:17.326Z,0
2018-03-01T04:53:58.090Z,0
2018-03-01T04:54:38.464Z,0
2018-03-01T04:55:18.972Z,0
2018-03-01T04:55:59.267Z,0
2018-03-01T04:56:40.027Z,0
2018-03-01T04:57:21.361Z,0
2018-03-01T04:58:01.287Z,0
2018-03-01T04:58:41.697Z,0
2018-03-01T04:59:22.140Z,0
2018-03-01T05:00:02.901Z,0
2018-03-01T05:00:43.020Z,0
2018-03-01T05:01:23.492Z,0
2018-03-01T05:02:03.903Z,0
2018-03-01T05:02:44.516Z,0
2018-03-01T05:03:24.924Z,0
2018-03-01T05:04:05.487Z,0
2018-03-01T05:04:45.804Z,0
2018-03-01T05:05:26.269Z,0
2018-03-01T05:06:07.038Z,0
2018-03-01T05:06:47.469Z,0
2018-03-01T05:07:27.757Z,0
2018-03-01T05:08:08.249Z,0
2018-03-01T05:08:48.883Z,0
2018-03-01T05:09:30.123Z,0
2018-03-01T05:10:10.504Z,0
2018-03-01T05:10:50.348Z,0
2018-03-01T05:11:30.736Z,0
2018-03-01T05:12:11.423Z,0
2018-03-01T05:12:51.832Z,0
2018-03-01T05:13:32.716Z,0
2018-03-01T05:14:13.906Z,0
2018-03-01T05:14:54.480Z,0
2018-03-01T05:15:34.918Z,0
2018-03-01T05:16:15.640Z,0
2018-03-01T05:16:56.081Z,0
2018-03-01T05:17:36.720Z,0
2018-03-01T05:18:17.261Z,0
2018-03-01T05:18:57.681Z,0
2018-03-01T05:19:38.101Z,0
2018-03-01T05:20:18.709Z,0
2018-03-01T05:20:58.979Z,0
2018-03-01T05:21:40.303Z,0
2018-03-01T05:22:20.707Z,0
2018-03-01T05:23:01.254Z,0
2018-03-01T05:23:42.177Z,0
2018-03-01T05:24:22.428Z,0
2018-03-01T05:25:02.996Z,0
2018-03-01T05:25:43.516Z,0
2018-03-01T05:26:24.246Z,0
2018-03-01T05:27:04.607Z,0
2018-03-01T05:27:45.461Z,0
2018-03-01T05:28:25.895Z,0
2018-03-01T05:29:06.316Z,0
2018-03-01T05:29:47.412Z,0
2018-03-01T05:30:27.636Z,0
2018-03-01T05:31:08.353Z,0
2018-03-01T05:31:48.997Z,0
2018-03-01T05:32:29.551Z,0
2018-03-01T05:33:09.901Z,0
2018-03-01T05:33:51.028Z,0
2018-03-01T05:34:31.577Z,0
2018-03-01T05:35:11.866Z,0
2018-03-01T05:35:52.217Z,0
2018-03-01T05:36:32.578Z,0
2018-03-01T05:37:14.021Z,0
2018-03-01T05:37:54.654Z,0
2018-03-01T05:38:35.136Z,0
2018-03-01T05:39:15.582Z,0
2018-03-01T05:39:57.435Z,0
2018-03-01T05:40:37.477Z,0
2018-03-01T05:41:17.898Z,0
2018-03-01T05:41:58.433Z,0
2018-03-01T05:42:39.567Z,0
2018-03-01T05:43:20.182Z,0
2018-03-01T05:44:02.721Z,0
2018-03-01T05:44:42.779Z,0
2018-03-01T05:45:23.847Z,0
2018-03-01T05:46:04.256Z,0
2018-03-01T05:46:44.796Z,0
2018-03-01T05:47:25.250Z,0
2018-03-01T05:48:05.944Z,0
2018-03-01T05:48:46.285Z,0
2018-03-01T05:49:26.756Z,0
2018-03-01T05:50:07.351Z,0
2018-03-01T05:50:48.070Z,0
2018-03-01T05:51:28.428Z,0
2018-03-01T05:52:08.869Z,0
2018-03-01T05:52:49.513Z,4
2018-03-01T05:53:29.903Z,4
2018-03-01T05:54:10.303Z,4
2018-03-01T05:54:51.437Z,0
2018-03-01T05:55:31.690Z,0
2018-03-01T05:56:12.129Z,4
2018-03-01T05:56:52.539Z,4
2018-03-01T05:57:34.234Z,0
2018-03-01T05:58:14.894Z,4
2018-03-01T05:58:55.743Z,4
2018-03-01T05:59:36.038Z,4
2018-03-01T06:00:16.485Z,4
2018-03-01T06:00:57.090Z,4
2018-03-01T06:01:40.015Z,4
2018-03-01T06:02:20.894Z,8
2018-03-01T06:03:01.819Z,4
2018-03-01T06:03:42.054Z,8
2018-03-01T06:04:22.582Z,8
2018-03-01T06:05:05.352Z,8
2018-03-01T06:07:07.675Z,8
2018-03-01T06:07:48.343Z,8
2018-03-01T06:08:29.570Z,12
2018-03-01T06:09:09.829Z,12
2018-03-01T06:09:52.853Z,16
2018-03-01T06:10:33.198Z,12
2018-03-01T06:11:13.537Z,16
2018-03-01T06:11:53.953Z,12
2018-03-01T06:12:34.565Z,16
2018-03-01T06:13:14.934Z,16
2018-03-01T06:13:56.221Z,20
2018-03-01T06:14:37.565Z,20
2018-03-01T06:15:24.706Z,24
2018-03-01T06:16:05.363Z,24
2018-03-01T06:16:46.248Z,24
2018-03-01T06:19:25.992Z,28
2018-03-01T06:20:06.363Z,28
2018-03-01T06:20:46.715Z,28
2018-03-01T06:21:27.159Z,32
2018-03-01T06:22:07.505Z,32
2018-03-01T06:22:47.983Z,32
2018-03-01T06:23:28.418Z,32
2018-03-01T06:24:08.820Z,40
2018-03-01T06:24:49.165Z,36
2018-03-01T06:25:29.479Z,40
2018-03-01T06:26:09.959Z,40
2018-03-01T06:26:50.361Z,44
2018-03-01T06:27:30.746Z,44
2018-03-01T06:28:11.096Z,48
2018-03-01T06:28:51.474Z,48
2018-03-01T06:29:32.090Z,52
2018-03-01T06:30:12.464Z,52
2018-03-01T06:30:52.924Z,56
2018-03-01T06:31:33.339Z,56
2018-03-01T06:32:13.726Z,56
2018-03-01T06:32:54.116Z,56
2018-03-01T06:33:34.650Z,60
2018-03-01T06:34:14.849Z,60
2018-03-01T06:34:55.339Z,60
2018-03-01T06:40:45.386Z,76
2018-03-01T06:44:27.228Z,84
2018-03-01T06:45:08.076Z,84
2018-03-01T06:45:48.580Z,88
2018-03-01T06:46:28.951Z,92
2018-03-01T06:47:09.525Z,96
2018-03-01T06:47:50.425Z,100
2018-03-01T06:48:31.779Z,108
2018-03-01T06:49:12.711Z,112
2018-03-01T06:49:53.006Z,120
2018-03-01T06:50:33.882Z,124
2018-03-01T06:51:14.564Z,140
2018-03-01T06:51:55.466Z,156
2018-03-01T06:52:35.540Z,172
2018-03-01T06:53:16.409Z,172
2018-03-01T06:53:57.695Z,168
2018-03-01T06:54:38.297Z,160
2018-03-01T06:55:19.565Z,160
2018-03-01T06:56:01.772Z,160
2018-03-01T06:56:41.469Z,160
2018-03-01T06:57:22.322Z,164
2018-03-01T06:58:02.740Z,160
2018-03-01T06:58:43.149Z,160
2018-03-01T06:59:23.715Z,164
2018-03-01T07:00:04.216Z,168
2018-03-01T07:00:44.478Z,172
2018-03-01T07:01:24.870Z,180
2018-03-01T07:02:05.484Z,192
2018-03-01T07:02:45.839Z,204
2018-03-01T07:03:26.439Z,216
2018-03-01T07:04:07.149Z,232
2018-03-01T07:04:47.495Z,244
2018-03-01T07:05:27.946Z,264
2018-03-01T07:06:08.392Z,284
2018-03-01T07:06:48.724Z,296
2018-03-01T07:07:29.102Z,300
2018-03-01T07:08:09.867Z,304
2018-03-01T07:08:51.209Z,312
2018-03-01T07:09:31.678Z,304
2018-03-01T07:10:12.111Z,296
2018-03-01T07:12:20.833Z,276
2018-03-01T07:13:01.261Z,272
2018-03-01T07:13:41.813Z,268
2018-03-01T07:15:06.689Z,272
2018-03-01T07:16:08.237Z,272
2018-03-01T07:19:03.923Z,284
2018-03-01T07:19:44.802Z,288
2018-03-01T07:20:25.598Z,308
2018-03-01T07:21:06.468Z,324
2018-03-01T07:21:47.071Z,348
2018-03-01T07:22:29.589Z,372
2018-03-01T07:23:10.025Z,404
2018-03-01T07:23:50.688Z,436
2018-03-01T07:24:31.553Z,476
2018-03-01T07:25:11.641Z,516
2018-03-01T07:25:52.144Z,536
2018-03-01T07:26:32.509Z,544
2018-03-01T07:27:12.929Z,548
2018-03-01T07:27:54.284Z,552
2018-03-01T07:28:33.946Z,548
2018-03-01T07:29:15.301Z,540
2018-03-01T07:29:55.572Z,528
2018-03-01T07:30:36.041Z,520
2018-03-01T07:31:16.560Z,520
2018-03-01T07:31:57.018Z,520
2018-03-01T07:32:38.002Z,516
2018-03-01T07:33:18.652Z,508
2018-03-01T07:33:59.150Z,492
2018-03-01T07:34:39.652Z,476
2018-03-01T07:35:20.094Z,468
2018-03-01T07:36:00.530Z,460
2018-03-01T07:36:41.121Z,452
2018-03-01T07:37:21.699Z,452
2018-03-01T07:38:02.108Z,444
2018-03-01T07:38:42.557Z,448
2018-03-01T07:39:23.027Z,460
2018-03-01T07:40:03.520Z,464
2018-03-01T07:40:44.460Z,472
2018-03-01T07:41:24.878Z,476
2018-03-01T07:42:05.378Z,488
2018-03-01T07:42:46.446Z,500
2018-03-01T07:43:26.476Z,520
2018-03-01T07:44:07.022Z,536
2018-03-01T07:44:47.355Z,548
2018-03-01T07:45:28.738Z,560
2018-03-01T07:46:08.978Z,572
2018-03-01T07:46:49.362Z,592
2018-03-01T07:47:29.877Z,616
2018-03-01T07:48:10.220Z,644
2018-03-01T07:48:50.660Z,660
2018-03-01T07:49:31.087Z,676
2018-03-01T07:50:11.575Z,680
2018-03-01T07:50:52.379Z,692
2018-03-01T07:51:32.881Z,684
2018-03-01T07:52:14.432Z,692
2018-03-01T07:59:24.759Z,688
2018-03-01T08:01:36.800Z,712
2018-03-01T08:05:25.218Z,812
2018-03-01T08:06:05.923Z,832
2018-03-01T08:06:52.319Z,848
2018-03-01T08:07:32.751Z,876
2018-03-01T08:08:14.189Z,884
2018-03-01T08:08:54.478Z,948
2018-03-01T08:09:34.960Z,972
2018-03-01T08:10:15.814Z,996
2018-03-01T08:10:56.696Z,1036
2018-03-01T08:11:37.159Z,1084
2018-03-01T08:12:17.395Z,1084
2018-03-01T08:12:57.905Z,1104
2018-03-01T08:13:38.457Z,1112
2018-03-01T08:14:18.775Z,1128
2018-03-01T08:14:59.189Z,1156
2018-03-01T08:15:40.371Z,1180
2018-03-01T08:16:20.451Z,1248
2018-03-01T08:17:01.615Z,1280
2018-03-01T08:17:42.108Z,1300
2018-03-01T08:18:22.921Z,1340
2018-03-01T08:19:04.117Z,1492
2018-03-01T08:19:44.504Z,1536
2018-03-01T08:20:25.182Z,1672
2018-03-01T08:21:05.771Z,1832
2018-03-01T08:21:46.323Z,1984
2018-03-01T08:22:26.808Z,2208
2018-03-01T08:23:08.008Z,2332
2018-03-01T08:23:48.004Z,2408
2018-03-01T08:24:28.345Z,2396
2018-03-01T08:25:08.893Z,2328
2018-03-01T08:25:49.585Z,2292
2018-03-01T08:26:29.749Z,2276
2018-03-01T08:27:10.255Z,2324
2018-03-01T08:27:51.930Z,2432
2018-03-01T08:28:32.983Z,2724
2018-03-01T08:29:13.819Z,2868
2018-03-01T08:29:55.131Z,3000
2018-03-01T08:30:35.429Z,2924
2018-03-01T08:31:15.987Z,2988
2018-03-01T08:31:56.582Z,3068
2018-03-01T08:32:37.388Z,2972
2018-03-01T08:33:17.849Z,3000
2018-03-01T08:33:58.708Z,3080
2018-03-01T08:34:40.035Z,3000
2018-03-01T08:35:21.696Z,2880
2018-03-01T08:36:02.599Z,2816
2018-03-01T08:36:43.141Z,2732
2018-03-01T08:37:23.627Z,2784
2018-03-01T08:38:04.035Z,2736
2018-03-01T08:38:44.396Z,2696
2018-03-01T08:39:24.837Z,2532
2018-03-01T08:40:06.135Z,2488
2018-03-01T08:40:46.554Z,2368
2018-03-01T08:41:27.881Z,2316
2018-03-01T08:42:08.547Z,2172
2018-03-01T08:42:49.754Z,2160
2018-03-01T08:43:30.209Z,2272
2018-03-01T08:44:12.109Z,2408
2018-03-01T08:44:53.571Z,2436
2018-03-01T08:45:34.401Z,2496
2018-03-01T08:46:15.059Z,2408
2018-03-01T08:46:55.994Z,2356
2018-03-01T08:47:36.711Z,2316
2018-03-01T08:48:17.193Z,2284
2018-03-01T08:48:57.816Z,2244
2018-03-01T08:49:38.058Z,2212
2018-03-01T08:50:18.782Z,2168
2018-03-01T08:50:59.209Z,2140
2018-03-01T08:51:40.331Z,2116
2018-03-01T08:52:22.465Z,2132
2018-03-01T08:55:04.878Z,2200
2018-03-01T08:55:45.471Z,2200
2018-03-01T08:56:26.409Z,2248
2018-03-01T08:57:07.471Z,2156
2018-03-01T08:57:54.190Z,2144
2018-03-01T08:58:34.824Z,2116
2018-03-01T08:59:15.262Z,2048
2018-03-01T08:59:56.048Z,2096
2018-03-01T09:00:36.874Z,2004
2018-03-01T09:01:17.855Z,2056
2018-03-01T09:01:58.619Z,2052
2018-03-01T09:02:40.240Z,2292
2018-03-01T09:03:21.155Z,2332
2018-03-01T09:04:01.789Z,2524
2018-03-01T09:04:42.887Z,2480
2018-03-01T09:05:23.154Z,2392
2018-03-01T09:06:04.151Z,2396
2018-03-01T09:06:44.985Z,2412
2018-03-01T09:07:25.589Z,2408
2018-03-01T09:08:06.189Z,2440
2018-03-01T09:08:46.765Z,2460
2018-03-01T09:09:27.358Z,2320
2018-03-01T09:10:07.783Z,2376
2018-03-01T09:10:48.225Z,2352
2018-03-01T09:11:28.891Z,2256
2018-03-01T09:12:09.474Z,2372
2018-03-01T09:12:51.031Z,2408
2018-03-01T09:13:31.478Z,2548
2018-03-01T09:14:11.909Z,2484
2018-03-01T09:14:52.954Z,2564
2018-03-01T09:15:35.993Z,2644
2018-03-01T09:16:16.392Z,2580
2018-03-01T09:16:57.147Z,2588
2018-03-01T09:17:37.863Z,2540
2018-03-01T09:18:18.468Z,2548
2018-03-01T09:19:01.761Z,2556
2018-03-01T09:19:44.134Z,2620
2018-03-01T09:20:23.274Z,2628
2018-03-01T09:21:04.022Z,2548
2018-03-01T09:21:45.048Z,2652
2018-03-01T09:22:25.450Z,2600
2018-03-01T09:23:06.890Z,2732
2018-03-01T09:23:47.415Z,2712
2018-03-01T09:24:28.459Z,2864
2018-03-01T09:25:09.441Z,2760
2018-03-01T09:25:49.973Z,2776
2018-03-01T09:26:31.263Z,2872
2018-03-01T09:27:11.752Z,2848
2018-03-01T09:27:52.189Z,2768
2018-03-01T09:28:32.918Z,2772
2018-03-01T09:29:13.650Z,2756
2018-03-01T09:29:54.457Z,2832
2018-03-01T09:30:34.895Z,2792
2018-03-01T09:31:15.984Z,2836
2018-03-01T09:31:56.453Z,2856
2018-03-01T09:34:27.821Z,2908
2018-03-01T09:45:18.430Z,2712
2018-03-01T09:48:03.541Z,2776
2018-03-01T09:48:43.980Z,2760
2018-03-01T09:49:24.362Z,2800
2018-03-01T09:50:04.792Z,2796
2018-03-01T09:50:45.141Z,2756
2018-03-01T09:51:25.689Z,2796
2018-03-01T09:52:06.170Z,2772
2018-03-01T09:52:46.638Z,2808
2018-03-01T09:53:27.029Z,2836
2018-03-01T09:54:07.709Z,2780
2018-03-01T09:54:47.966Z,2780
2018-03-01T09:55:28.379Z,2620
2018-03-01T09:56:09.252Z,2584
2018-03-01T09:56:49.534Z,2564
2018-03-01T09:57:30.038Z,2500
2018-03-01T09:58:10.428Z,2488
2018-03-01T09:58:51.096Z,2472
2018-03-01T09:59:31.660Z,2444
2018-03-01T10:00:12.187Z,2484
2018-03-01T10:00:52.784Z,2424
2018-03-01T10:01:33.431Z,2416
2018-03-01T10:02:13.768Z,2484
2018-03-01T10:02:54.290Z,2428
2018-03-01T10:03:34.802Z,2404
2018-03-01T10:04:15.333Z,2400
2018-03-01T10:04:55.651Z,2320
2018-03-01T10:05:36.073Z,2532
2018-03-01T10:06:16.685Z,2308
2018-03-01T10:06:57.174Z,2232
2018-03-01T10:07:37.678Z,2308
2018-03-01T10:08:18.262Z,2232
2018-03-01T10:08:58.793Z,2264
2018-03-01T10:47:05.021Z,2760
2018-03-01T10:47:52.621Z,2828
2018-03-01T10:48:39.171Z,2844
2018-03-01T10:49:19.307Z,2840
2018-03-01T10:50:00.117Z,2796
2018-03-01T10:50:40.638Z,2712
2018-03-01T10:51:21.379Z,2736
2018-03-01T10:52:02.531Z,2808
2018-03-01T10:52:42.957Z,2864
2018-03-01T10:53:23.432Z,2940
2018-03-01T10:54:04.325Z,2868
2018-03-01T10:54:45.309Z,2792
2018-03-01T10:55:25.739Z,2800
2018-03-01T10:56:06.100Z,2836
2018-03-01T10:56:46.662Z,2684
2018-03-01T10:57:27.052Z,2632
2018-03-01T10:58:07.478Z,2612
2018-03-01T10:58:47.920Z,2848
2018-03-01T10:59:28.567Z,2720
2018-03-01T11:00:08.749Z,2680
2018-03-01T11:00:49.255Z,2712
2018-03-01T11:01:29.669Z,2696
2018-03-01T11:02:10.137Z,2672
2018-03-01T11:02:50.549Z,2664
2018-03-01T11:03:31.097Z,2660
2018-03-01T11:04:11.454Z,2644
2018-03-01T11:04:51.886Z,2564
2018-03-01T11:05:32.604Z,2484
2018-03-01T11:06:13.743Z,2400
2018-03-01T11:06:55.506Z,2344
2018-03-01T11:07:36.004Z,2304
2018-03-01T11:08:16.247Z,2220
2018-03-01T11:08:56.687Z,2184
2018-03-01T11:09:37.145Z,2132
2018-03-01T11:10:17.712Z,2088
2018-03-01T11:10:58.169Z,2024
2018-03-01T11:11:38.862Z,1952
2018-03-01T11:12:19.313Z,1964
2018-03-01T11:12:59.846Z,1920
2018-03-01T11:13:40.265Z,1864
2018-03-01T11:14:20.745Z,1792
2018-03-01T11:15:01.282Z,1788
2018-03-01T11:15:41.611Z,1768
2018-03-01T11:16:22.101Z,1744
2018-03-01T11:17:02.731Z,1716
2018-03-01T11:17:43.122Z,1684
2018-03-01T11:18:23.890Z,1688
2018-03-01T11:19:04.508Z,1684
2018-03-01T11:19:44.977Z,1616
2018-03-01T11:20:25.460Z,1644
2018-03-01T11:21:05.865Z,1620
2018-03-01T11:21:46.257Z,1640
2018-03-01T11:22:26.713Z,1640
2018-03-01T11:23:07.153Z,1656
2018-03-01T11:23:47.611Z,1628
2018-03-01T11:24:28.049Z,1660
2018-03-01T11:25:08.482Z,1656
2018-03-01T11:25:48.831Z,1652
2018-03-01T11:26:29.286Z,1652
2018-03-01T11:27:09.761Z,1624
2018-03-01T11:27:50.308Z,1640
2018-03-01T11:28:30.811Z,1624
2018-03-01T11:29:11.317Z,1580
2018-03-01T11:29:51.701Z,1544
2018-03-01T11:30:32.255Z,1552
2018-03-01T11:31:12.887Z,1552
2018-03-01T11:31:53.154Z,1524
2018-03-01T11:32:33.824Z,1476
2018-03-01T11:33:14.247Z,1484
2018-03-01T11:33:54.748Z,1480
2018-03-01T11:34:35.191Z,1428
2018-03-01T11:35:15.632Z,1432
2018-03-01T11:35:56.184Z,1408
2018-03-01T11:36:36.573Z,1424
2018-03-01T11:37:17.340Z,1436
2018-03-01T11:37:58.277Z,1416
2018-03-01T11:38:38.796Z,1468
2018-03-01T11:39:19.182Z,1452
2018-03-01T11:39:59.793Z,1432
2018-03-01T11:40:40.770Z,1440
2018-03-01T11:41:21.749Z,1428
2018-03-01T11:42:01.752Z,1436
2018-03-01T11:42:42.338Z,1412
2018-03-01T11:43:22.871Z,1400
2018-03-01T11:44:03.345Z,1416
2018-03-01T11:44:44.253Z,1416
2018-03-01T11:45:24.767Z,1420
2018-03-01T11:46:05.341Z,1424
2018-03-01T11:46:46.399Z,1416
2018-03-01T11:47:26.806Z,1440
2018-03-01T11:48:07.295Z,1424
2018-03-01T11:48:47.709Z,1424
2018-03-01T11:49:28.146Z,1432
2018-03-01T11:50:09.079Z,1432
2018-03-01T11:50:49.757Z,1464
2018-03-01T11:51:30.329Z,1504
2018-03-01T11:52:10.830Z,1488
2018-03-01T11:52:51.239Z,1480
2018-03-01T11:53:32.818Z,1496
2018-03-01T11:54:12.471Z,1488
2018-03-01T11:54:53.024Z,1484
2018-03-01T11:55:33.620Z,1512